Terminal Aerodrome Forecast
Issued by NWS

Home | Current Version | Previous Version | Text Only | Print | Product List | Glossary On
Versions: 1 2 3 4 5 6 7 8 9 10 11 12 13 14 15 16
000
FTUS42 KTAE 231100
TAFECP
TAF
KECP 231133Z 2312/2412 11010G15KT P6SM VCSH OVC008
     FM231600 16015G25KT P6SM VCTS BKN008 OVC015CB
     FM231900 19015G25KT 4SM TSRA BKN030CB BKN100
      TEMPO 2319/2322 VRB20G30KT 2SM +TSRA BKN025CB
     FM240100 20011KT P6SM OVC007=

USA.gov is the U.S. government's official web portal to all federal, state and local government web resources and services.